sensor_id;sensor_type;location;lat;lon;timestamp;pressure;altitude;pressure_sealevel;temperature;humidity
8286;BME280;4181;43.416;24.598;2023-02-28T00:00:25;100404.28;;;9.63;100.00
8286;BME280;4181;43.416;24.598;2023-02-28T00:02:51;100413.03;;;9.65;100.00
8286;BME280;4181;43.416;24.598;2023-02-28T00:05:18;100473.66;;;9.95;100.00
8286;BME280;4181;43.416;24.598;2023-02-28T00:07:45;100490.38;;;9.41;100.00
8286;BME280;4181;43.416;24.598;2023-02-28T00:10:12;100511.28;;;9.17;100.00
8286;BME280;4181;43.416;24.598;2023-02-28T00:12:38;100514.22;;;9.16;100.00
8286;BME280;4181;43.416;24.598;2023-02-28T00:15:11;100510.19;;;9.18;100.00
8286;BME280;4181;43.416;24.598;2023-02-28T00:17:36;100481.22;;;9.24;100.00
8286;BME280;4181;43.416;24.598;2023-02-28T00:20:03;100505.75;;;9.47;100.00
8286;BME280;4181;43.416;24.598;2023-02-28T00:22:39;100500.91;;;9.60;100.00
8286;BME280;4181;43.416;24.598;2023-02-28T00:25:07;100510.16;;;9.71;100.00
8286;BME280;4181;43.416;24.598;2023-02-28T00:27:35;100539.44;;;9.87;100.00
8286;BME280;4181;43.416;24.598;2023-02-28T00:30:01;100532.69;;;9.89;100.00
8286;BME280;4181;43.416;24.598;2023-02-28T00:32:26;100551.66;;;9.84;100.00
8286;BME280;4181;43.416;24.598;2023-02-28T00:34:52;100582.34;;;10.03;100.00
8286;BME280;4181;43.416;24.598;2023-02-28T00:37:17;100574.16;;;10.03;100.00
8286;BME280;4181;43.416;24.598;2023-02-28T00:39:43;100594.81;;;10.22;100.00
8286;BME280;4181;43.416;24.598;2023-02-28T00:42:08;100579.53;;;10.21;100.00
8286;BME280;4181;43.416;24.598;2023-02-28T00:44:34;100613.16;;;10.38;100.00
8286;BME280;4181;43.416;24.598;2023-02-28T00:47:00;100619.94;;;10.47;100.00
8286;BME280;4181;43.416;24.598;2023-02-28T00:49:26;100637.00;;;10.54;100.00
8286;BME280;4181;43.416;24.598;2023-02-28T00:51:53;100642.59;;;10.59;100.00
8286;BME280;4181;43.416;24.598;2023-02-28T00:54:19;100622.19;;;10.50;100.00
8286;BME280;4181;43.416;24.598;2023-02-28T00:56:45;100639.75;;;10.54;100.00
8286;BME280;4181;43.416;24.598;2023-02-28T00:59:12;100635.22;;;10.48;100.00
8286;BME280;4181;43.416;24.598;2023-02-28T01:01:39;100629.66;;;10.55;100.00
8286;BME280;4181;43.416;24.598;2023-02-28T01:04:08;100671.16;;;10.68;100.00
8286;BME280;4181;43.416;24.598;2023-02-28T01:06:34;100656.22;;;10.59;100.00
8286;BME280;4181;43.416;24.598;2023-02-28T01:08:59;100655.75;;;10.51;100.00
8286;BME280;4181;43.416;24.598;2023-02-28T01:11:27;100655.97;;;10.61;100.00
8286;BME280;4181;43.416;24.598;2023-02-28T01:13:53;100649.56;;;10.55;100.00
8286;BME280;4181;43.416;24.598;2023-02-28T01:16:18;100653.38;;;10.66;100.00
8286;BME280;4181;43.416;24.598;2023-02-28T01:18:44;100651.59;;;10.71;100.00
8286;BME280;4181;43.416;24.598;2023-02-28T01:21:12;100660.00;;;10.81;100.00
8286;BME280;4181;43.416;24.598;2023-02-28T01:23:39;100653.25;;;10.72;100.00
8286;BME280;4181;43.416;24.598;2023-02-28T01:26:10;100648.66;;;10.50;100.00
8286;BME280;4181;43.416;24.598;2023-02-28T01:28:35;100659.91;;;10.65;100.00
8286;BME280;4181;43.416;24.598;2023-02-28T01:31:01;100656.03;;;11.00;100.00
8286;BME280;4181;43.416;24.598;2023-02-28T01:33:27;100657.06;;;10.71;100.00
8286;BME280;4181;43.416;24.598;2023-02-28T01:36:11;100652.53;;;10.65;100.00
8286;BME280;4181;43.416;24.598;2023-02-28T01:38:37;100653.75;;;10.46;100.00
8286;BME280;4181;43.416;24.598;2023-02-28T01:41:03;100645.19;;;10.54;100.00
8286;BME280;4181;43.416;24.598;2023-02-28T01:46:10;100633.56;;;10.36;100.00
8286;BME280;4181;43.416;24.598;2023-02-28T01:48:51;100624.06;;;10.38;100.00
8286;BME280;4181;43.416;24.598;2023-02-28T01:51:25;100613.28;;;10.32;100.00
8286;BME280;4181;43.416;24.598;2023-02-28T01:53:56;100598.38;;;10.23;100.00
8286;BME280;4181;43.416;24.598;2023-02-28T01:56:28;100605.59;;;10.17;100.00
8286;BME280;4181;43.416;24.598;2023-02-28T01:58:54;100597.50;;;9.99;100.00
8286;BME280;4181;43.416;24.598;2023-02-28T02:01:22;100593.94;;;9.87;100.00
8286;BME280;4181;43.416;24.598;2023-02-28T02:03:51;100574.84;;;9.75;100.00
8286;BME280;4181;43.416;24.598;2023-02-28T02:06:43;100562.06;;;9.64;100.00
8286;BME280;4181;43.416;24.598;2023-02-28T02:09:10;100552.91;;;9.59;100.00
8286;BME280;4181;43.416;24.598;2023-02-28T02:11:39;100538.44;;;9.47;100.00
8286;BME280;4181;43.416;24.598;2023-02-28T02:14:31;100555.97;;;9.51;100.00
8286;BME280;4181;43.416;24.598;2023-02-28T02:17:15;100553.38;;;9.56;100.00
8286;BME280;4181;43.416;24.598;2023-02-28T02:36:57;100483.25;;;8.57;100.00
8286;BME280;4181;43.416;24.598;2023-02-28T02:39:47;100469.25;;;8.72;100.00
8286;BME280;4181;43.416;24.598;2023-02-28T02:45:45;100466.53;;;8.72;100.00
8286;BME280;4181;43.416;24.598;2023-02-28T02:48:16;100468.59;;;8.58;100.00
8286;BME280;4181;43.416;24.598;2023-02-28T02:50:46;100480.41;;;8.52;100.00
8286;BME280;4181;43.416;24.598;2023-02-28T02:53:17;100487.31;;;8.66;100.00
8286;BME280;4181;43.416;24.598;2023-02-28T02:55:47;100502.72;;;8.72;100.00
8286;BME280;4181;43.416;24.598;2023-02-28T02:58:24;100499.28;;;8.47;100.00
8286;BME280;4181;43.416;24.598;2023-02-28T03:00:54;100506.84;;;8.09;100.00
8286;BME280;4181;43.416;24.598;2023-02-28T03:03:23;100523.16;;;8.09;100.00
8286;BME280;4181;43.416;24.598;2023-02-28T03:05:59;100519.34;;;7.92;100.00
8286;BME280;4181;43.416;24.598;2023-02-28T03:08:25;100509.31;;;7.93;100.00
8286;BME280;4181;43.416;24.598;2023-02-28T03:10:56;100496.09;;;7.96;100.00
8286;BME280;4181;43.416;24.598;2023-02-28T03:16:36;100486.16;;;8.26;100.00
8286;BME280;4181;43.416;24.598;2023-02-28T03:25:20;100510.31;;;7.31;100.00
8286;BME280;4181;43.416;24.598;2023-02-28T03:30:50;100500.03;;;7.33;100.00
8286;BME280;4181;43.416;24.598;2023-02-28T03:33:22;100509.69;;;7.29;100.00
8286;BME280;4181;43.416;24.598;2023-02-28T03:35:55;100513.66;;;7.02;100.00
8286;BME280;4181;43.416;24.598;2023-02-28T03:38:31;100507.59;;;7.00;100.00
8286;BME280;4181;43.416;24.598;2023-02-28T03:41:12;100494.63;;;6.77;100.00
8286;BME280;4181;43.416;24.598;2023-02-28T03:43:43;100484.22;;;6.74;100.00
8286;BME280;4181;43.416;24.598;2023-02-28T03:46:12;100477.31;;;7.03;100.00
8286;BME280;4181;43.416;24.598;2023-02-28T03:48:44;100469.00;;;7.04;100.00
8286;BME280;4181;43.416;24.598;2023-02-28T03:51:15;100489.94;;;6.91;100.00
8286;BME280;4181;43.416;24.598;2023-02-28T03:53:50;100484.03;;;7.00;100.00
8286;BME280;4181;43.416;24.598;2023-02-28T03:56:24;100512.47;;;6.91;100.00
8286;BME280;4181;43.416;24.598;2023-02-28T03:59:09;100514.59;;;6.83;100.00
8286;BME280;4181;43.416;24.598;2023-02-28T04:01:40;100498.66;;;6.62;100.00
8286;BME280;4181;43.416;24.598;2023-02-28T04:04:10;100489.47;;;6.63;100.00
8286;BME280;4181;43.416;24.598;2023-02-28T04:06:36;100489.41;;;6.76;100.00
8286;BME280;4181;43.416;24.598;2023-02-28T04:09:04;100486.56;;;6.95;100.00
8286;BME280;4181;43.416;24.598;2023-02-28T04:11:36;100470.47;;;7.00;100.00
8286;BME280;4181;43.416;24.598;2023-02-28T04:14:03;100439.34;;;7.03;100.00
8286;BME280;4181;43.416;24.598;2023-02-28T04:16:31;100480.50;;;7.24;100.00
8286;BME280;4181;43.416;24.598;2023-02-28T04:18:57;100485.50;;;6.96;100.00
8286;BME280;4181;43.416;24.598;2023-02-28T04:21:49;100495.78;;;6.94;100.00
8286;BME280;4181;43.416;24.598;2023-02-28T04:24:20;100488.50;;;7.13;100.00
8286;BME280;4181;43.416;24.598;2023-02-28T04:26:49;100497.56;;;7.31;100.00
8286;BME280;4181;43.416;24.598;2023-02-28T04:29:33;100508.97;;;7.15;100.00
8286;BME280;4181;43.416;24.598;2023-02-28T04:31:59;100541.94;;;7.19;100.00
8286;BME280;4181;43.416;24.598;2023-02-28T04:34:26;100536.81;;;7.04;100.00
8286;BME280;4181;43.416;24.598;2023-02-28T04:36:53;100559.63;;;6.90;100.00
8286;BME280;4181;43.416;24.598;2023-02-28T04:39:21;100591.78;;;6.87;100.00
8286;BME280;4181;43.416;24.598;2023-02-28T04:41:47;100582.56;;;6.94;100.00
8286;BME280;4181;43.416;24.598;2023-02-28T04:44:13;100593.78;;;6.98;100.00
8286;BME280;4181;43.416;24.598;2023-02-28T04:46:38;100606.63;;;6.78;100.00
8286;BME280;4181;43.416;24.598;2023-02-28T04:49:04;100594.28;;;6.88;100.00
8286;BME280;4181;43.416;24.598;2023-02-28T04:51:29;100580.00;;;7.06;100.00
8286;BME280;4181;43.416;24.598;2023-02-28T04:53:55;100588.50;;;7.09;100.00
8286;BME280;4181;43.416;24.598;2023-02-28T04:56:21;100571.50;;;6.96;100.00
8286;BME280;4181;43.416;24.598;2023-02-28T04:58:47;100596.47;;;7.11;100.00
8286;BME280;4181;43.416;24.598;2023-02-28T05:01:26;100588.22;;;6.86;100.00
8286;BME280;4181;43.416;24.598;2023-02-28T05:03:56;100591.47;;;7.01;100.00
8286;BME280;4181;43.416;24.598;2023-02-28T05:06:24;100605.25;;;7.00;100.00
8286;BME280;4181;43.416;24.598;2023-02-28T05:08:50;100630.63;;;6.81;100.00
8286;BME280;4181;43.416;24.598;2023-02-28T05:11:28;100629.19;;;6.65;100.00
8286;BME280;4181;43.416;24.598;2023-02-28T05:13:55;100639.47;;;6.50;100.00
8286;BME280;4181;43.416;24.598;2023-02-28T05:16:21;100609.88;;;6.42;100.00
8286;BME280;4181;43.416;24.598;2023-02-28T05:18:46;100602.00;;;6.34;100.00
8286;BME280;4181;43.416;24.598;2023-02-28T05:21:30;100605.97;;;6.25;100.00
8286;BME280;4181;43.416;24.598;2023-02-28T05:24:00;100601.81;;;6.22;100.00
8286;BME280;4181;43.416;24.598;2023-02-28T05:26:26;100602.41;;;6.37;100.00
8286;BME280;4181;43.416;24.598;2023-02-28T05:28:52;100593.47;;;6.30;100.00
8286;BME280;4181;43.416;24.598;2023-02-28T05:31:18;100586.13;;;6.31;100.00
8286;BME280;4181;43.416;24.598;2023-02-28T05:33:43;100588.66;;;6.32;100.00
8286;BME280;4181;43.416;24.598;2023-02-28T05:36:09;100592.22;;;6.20;100.00
8286;BME280;4181;43.416;24.598;2023-02-28T05:38:35;100567.44;;;6.10;100.00
8286;BME280;4181;43.416;24.598;2023-02-28T05:41:05;100544.88;;;6.35;100.00
8286;BME280;4181;43.416;24.598;2023-02-28T05:43:30;100553.81;;;6.36;100.00
8286;BME280;4181;43.416;24.598;2023-02-28T05:45:56;100562.81;;;6.30;100.00
8286;BME280;4181;43.416;24.598;2023-02-28T05:48:21;100567.38;;;6.29;100.00
8286;BME280;4181;43.416;24.598;2023-02-28T05:50:48;100583.44;;;6.31;100.00
8286;BME280;4181;43.416;24.598;2023-02-28T05:53:13;100595.72;;;6.33;100.00
8286;BME280;4181;43.416;24.598;2023-02-28T05:55:39;100586.09;;;6.51;100.00
8286;BME280;4181;43.416;24.598;2023-02-28T05:58:06;100597.19;;;6.29;100.00
8286;BME280;4181;43.416;24.598;2023-02-28T06:00:31;100592.00;;;6.21;100.00
8286;BME280;4181;43.416;24.598;2023-02-28T06:02:57;100597.78;;;6.44;100.00
8286;BME280;4181;43.416;24.598;2023-02-28T06:05:26;100597.88;;;6.12;100.00
8286;BME280;4181;43.416;24.598;2023-02-28T06:07:52;100607.03;;;6.24;100.00
8286;BME280;4181;43.416;24.598;2023-02-28T06:10:18;100618.47;;;6.13;100.00
8286;BME280;4181;43.416;24.598;2023-02-28T06:12:45;100606.34;;;6.35;100.00
8286;BME280;4181;43.416;24.598;2023-02-28T06:15:14;100607.81;;;6.31;100.00
8286;BME280;4181;43.416;24.598;2023-02-28T06:17:41;100606.59;;;6.27;100.00
8286;BME280;4181;43.416;24.598;2023-02-28T06:20:08;100599.88;;;6.43;100.00
8286;BME280;4181;43.416;24.598;2023-02-28T06:22:35;100605.31;;;6.29;100.00
8286;BME280;4181;43.416;24.598;2023-02-28T06:25:00;100608.22;;;6.34;100.00
8286;BME280;4181;43.416;24.598;2023-02-28T06:27:26;100619.75;;;6.10;100.00
8286;BME280;4181;43.416;24.598;2023-02-28T06:29:54;100621.59;;;6.23;100.00
8286;BME280;4181;43.416;24.598;2023-02-28T06:32:21;100618.72;;;6.05;100.00
8286;BME280;4181;43.416;24.598;2023-02-28T06:34:46;100599.56;;;5.93;100.00
8286;BME280;4181;43.416;24.598;2023-02-28T06:37:12;100572.06;;;5.83;100.00
8286;BME280;4181;43.416;24.598;2023-02-28T06:39:37;100577.25;;;6.04;100.00
8286;BME280;4181;43.416;24.598;2023-02-28T06:42:03;100601.00;;;6.15;100.00
8286;BME280;4181;43.416;24.598;2023-02-28T06:44:29;100597.28;;;5.97;100.00
8286;BME280;4181;43.416;24.598;2023-02-28T06:47:01;100589.31;;;6.15;100.00
8286;BME280;4181;43.416;24.598;2023-02-28T06:49:29;100591.56;;;6.24;100.00
8286;BME280;4181;43.416;24.598;2023-02-28T06:51:55;100578.22;;;6.29;100.00
8286;BME280;4181;43.416;24.598;2023-02-28T06:54:20;100580.69;;;6.51;100.00
8286;BME280;4181;43.416;24.598;2023-02-28T06:56:45;100598.22;;;6.41;100.00
8286;BME280;4181;43.416;24.598;2023-02-28T06:59:12;100607.78;;;6.51;100.00
8286;BME280;4181;43.416;24.598;2023-02-28T07:01:38;100609.72;;;6.24;100.00
8286;BME280;4181;43.416;24.598;2023-02-28T07:04:05;100615.13;;;6.30;100.00
8286;BME280;4181;43.416;24.598;2023-02-28T07:06:31;100603.66;;;6.28;100.00
8286;BME280;4181;43.416;24.598;2023-02-28T07:09:06;100582.81;;;6.35;100.00
8286;BME280;4181;43.416;24.598;2023-02-28T07:11:31;100577.41;;;6.35;100.00
8286;BME280;4181;43.416;24.598;2023-02-28T07:14:02;100625.72;;;6.45;100.00
8286;BME280;4181;43.416;24.598;2023-02-28T07:16:41;100604.97;;;5.93;100.00
8286;BME280;4181;43.416;24.598;2023-02-28T07:19:07;100602.03;;;6.08;100.00
8286;BME280;4181;43.416;24.598;2023-02-28T07:21:32;100595.38;;;6.10;100.00
8286;BME280;4181;43.416;24.598;2023-02-28T07:23:58;100583.47;;;6.11;100.00
8286;BME280;4181;43.416;24.598;2023-02-28T07:26:23;100597.97;;;6.50;100.00
8286;BME280;4181;43.416;24.598;2023-02-28T07:28:49;100606.88;;;6.70;100.00
8286;BME280;4181;43.416;24.598;2023-02-28T07:31:15;100597.44;;;6.79;100.00
8286;BME280;4181;43.416;24.598;2023-02-28T07:33:41;100614.56;;;6.79;100.00
8286;BME280;4181;43.416;24.598;2023-02-28T07:36:10;100635.22;;;6.74;100.00
8286;BME280;4181;43.416;24.598;2023-02-28T07:38:44;100632.56;;;6.61;100.00
8286;BME280;4181;43.416;24.598;2023-02-28T07:41:10;100631.06;;;6.65;100.00
8286;BME280;4181;43.416;24.598;2023-02-28T07:43:36;100655.31;;;6.47;100.00
8286;BME280;4181;43.416;24.598;2023-02-28T07:46:04;100640.72;;;6.41;100.00
8286;BME280;4181;43.416;24.598;2023-02-28T07:48:29;100622.84;;;6.33;100.00
8286;BME280;4181;43.416;24.598;2023-02-28T07:50:56;100626.38;;;6.40;100.00
8286;BME280;4181;43.416;24.598;2023-02-28T07:53:22;100636.78;;;6.43;100.00
8286;BME280;4181;43.416;24.598;2023-02-28T07:55:47;100628.16;;;6.60;100.00
8286;BME280;4181;43.416;24.598;2023-02-28T07:58:13;100648.25;;;6.46;100.00
8286;BME280;4181;43.416;24.598;2023-02-28T08:00:38;100640.34;;;6.31;100.00
8286;BME280;4181;43.416;24.598;2023-02-28T08:03:04;100628.47;;;6.32;100.00
8286;BME280;4181;43.416;24.598;2023-02-28T08:05:29;100588.44;;;6.34;100.00
8286;BME280;4181;43.416;24.598;2023-02-28T08:07:56;100625.91;;;6.50;100.00
8286;BME280;4181;43.416;24.598;2023-02-28T08:10:21;100590.13;;;6.28;100.00
8286;BME280;4181;43.416;24.598;2023-02-28T08:12:47;100579.09;;;6.23;100.00
8286;BME280;4181;43.416;24.598;2023-02-28T08:15:12;100584.41;;;6.50;100.00
8286;BME280;4181;43.416;24.598;2023-02-28T08:17:38;100587.50;;;6.60;100.00
8286;BME280;4181;43.416;24.598;2023-02-28T08:20:04;100624.84;;;6.58;100.00
8286;BME280;4181;43.416;24.598;2023-02-28T08:22:30;100612.56;;;6.55;100.00
8286;BME280;4181;43.416;24.598;2023-02-28T08:24:55;100604.41;;;6.62;100.00
8286;BME280;4181;43.416;24.598;2023-02-28T08:27:20;100596.94;;;6.51;100.00
8286;BME280;4181;43.416;24.598;2023-02-28T08:29:46;100608.81;;;6.50;100.00
8286;BME280;4181;43.416;24.598;2023-02-28T08:32:11;100602.38;;;6.51;100.00
8286;BME280;4181;43.416;24.598;2023-02-28T08:34:39;100598.16;;;6.55;100.00
8286;BME280;4181;43.416;24.598;2023-02-28T08:37:05;100593.63;;;6.42;100.00
8286;BME280;4181;43.416;24.598;2023-02-28T08:39:34;100592.34;;;6.44;100.00
8286;BME280;4181;43.416;24.598;2023-02-28T08:41:59;100583.56;;;6.56;100.00
8286;BME280;4181;43.416;24.598;2023-02-28T08:44:25;100577.38;;;6.42;100.00
8286;BME280;4181;43.416;24.598;2023-02-28T08:46:50;100595.53;;;6.35;100.00
8286;BME280;4181;43.416;24.598;2023-02-28T08:49:16;100598.84;;;6.37;100.00
8286;BME280;4181;43.416;24.598;2023-02-28T08:51:41;100597.59;;;6.39;100.00
8286;BME280;4181;43.416;24.598;2023-02-28T08:54:08;100588.47;;;6.27;100.00
8286;BME280;4181;43.416;24.598;2023-02-28T08:56:33;100615.94;;;6.31;100.00
8286;BME280;4181;43.416;24.598;2023-02-28T08:58:59;100590.47;;;6.52;100.00
8286;BME280;4181;43.416;24.598;2023-02-28T09:01:29;100572.31;;;6.52;100.00
8286;BME280;4181;43.416;24.598;2023-02-28T09:03:57;100584.13;;;6.71;100.00
8286;BME280;4181;43.416;24.598;2023-02-28T09:06:25;100573.47;;;6.76;100.00
8286;BME280;4181;43.416;24.598;2023-02-28T09:08:59;100604.59;;;6.67;100.00
8286;BME280;4181;43.416;24.598;2023-02-28T09:11:25;100617.38;;;6.47;100.00
8286;BME280;4181;43.416;24.598;2023-02-28T09:13:57;100616.50;;;6.53;100.00
8286;BME280;4181;43.416;24.598;2023-02-28T09:16:29;100615.47;;;6.60;100.00
8286;BME280;4181;43.416;24.598;2023-02-28T09:18:56;100624.19;;;6.69;100.00
8286;BME280;4181;43.416;24.598;2023-02-28T09:21:24;100623.22;;;6.50;100.00
8286;BME280;4181;43.416;24.598;2023-02-28T09:23:50;100633.84;;;6.45;100.00
8286;BME280;4181;43.416;24.598;2023-02-28T09:26:24;100621.19;;;6.19;100.00
8286;BME280;4181;43.416;24.598;2023-02-28T09:28:54;100640.94;;;6.39;100.00
8286;BME280;4181;43.416;24.598;2023-02-28T09:31:23;100626.31;;;6.60;100.00
8286;BME280;4181;43.416;24.598;2023-02-28T09:33:53;100640.91;;;6.53;100.00
8286;BME280;4181;43.416;24.598;2023-02-28T09:36:19;100623.22;;;6.43;100.00
8286;BME280;4181;43.416;24.598;2023-02-28T09:38:45;100607.50;;;6.65;100.00
8286;BME280;4181;43.416;24.598;2023-02-28T09:41:20;100602.44;;;6.82;100.00
8286;BME280;4181;43.416;24.598;2023-02-28T09:43:50;100608.09;;;6.74;100.00
8286;BME280;4181;43.416;24.598;2023-02-28T09:48:57;100612.09;;;6.65;100.00
8286;BME280;4181;43.416;24.598;2023-02-28T09:51:56;100617.84;;;6.88;100.00
8286;BME280;4181;43.416;24.598;2023-02-28T09:54:28;100606.59;;;6.91;100.00
8286;BME280;4181;43.416;24.598;2023-02-28T09:57:33;100638.78;;;6.68;100.00
8286;BME280;4181;43.416;24.598;2023-02-28T10:00:07;100635.25;;;6.67;100.00
8286;BME280;4181;43.416;24.598;2023-02-28T10:05:38;100629.81;;;6.74;100.00
8286;BME280;4181;43.416;24.598;2023-02-28T10:10:50;100624.25;;;6.49;100.00
8286;BME280;4181;43.416;24.598;2023-02-28T10:15:51;100587.31;;;6.55;100.00
8286;BME280;4181;43.416;24.598;2023-02-28T10:18:24;100596.88;;;6.64;100.00
8286;BME280;4181;43.416;24.598;2023-02-28T10:20:50;100582.47;;;6.70;100.00
8286;BME280;4181;43.416;24.598;2023-02-28T10:23:36;100564.84;;;6.92;100.00
8286;BME280;4181;43.416;24.598;2023-02-28T10:26:12;100574.09;;;6.71;100.00
8286;BME280;4181;43.416;24.598;2023-02-28T10:28:38;100596.34;;;6.86;100.00
8286;BME280;4181;43.416;24.598;2023-02-28T10:31:04;100583.50;;;6.75;100.00
8286;BME280;4181;43.416;24.598;2023-02-28T10:33:32;100600.63;;;6.63;100.00
8286;BME280;4181;43.416;24.598;2023-02-28T10:35:59;100610.25;;;6.59;100.00
8286;BME280;4181;43.416;24.598;2023-02-28T10:38:31;100588.06;;;6.75;100.00
8286;BME280;4181;43.416;24.598;2023-02-28T10:43:52;100567.94;;;6.51;100.00
8286;BME280;4181;43.416;24.598;2023-02-28T10:46:19;100573.13;;;6.59;100.00
8286;BME280;4181;43.416;24.598;2023-02-28T10:49:14;100573.00;;;6.85;100.00
8286;BME280;4181;43.416;24.598;2023-02-28T10:51:41;100571.50;;;6.96;100.00
8286;BME280;4181;43.416;24.598;2023-02-28T10:54:23;100533.09;;;6.99;100.00
8286;BME280;4181;43.416;24.598;2023-02-28T10:57:15;100568.72;;;7.09;100.00
8286;BME280;4181;43.416;24.598;2023-02-28T10:59:41;100558.88;;;6.77;100.00
8286;BME280;4181;43.416;24.598;2023-02-28T11:02:36;100559.63;;;6.90;100.00
8286;BME280;4181;43.416;24.598;2023-02-28T11:05:30;100558.75;;;6.96;100.00
8286;BME280;4181;43.416;24.598;2023-02-28T11:08:12;100542.59;;;7.08;100.00
8286;BME280;4181;43.416;24.598;2023-02-28T11:10:38;100531.53;;;6.78;100.00
8286;BME280;4181;43.416;24.598;2023-02-28T11:13:05;100539.88;;;6.77;100.00
8286;BME280;4181;43.416;24.598;2023-02-28T11:15:32;100537.75;;;7.16;100.00
8286;BME280;4181;43.416;24.598;2023-02-28T11:20:53;100558.13;;;7.01;100.00
8286;BME280;4181;43.416;24.598;2023-02-28T11:23:20;100557.81;;;7.15;100.00
8286;BME280;4181;43.416;24.598;2023-02-28T11:25:51;100559.63;;;7.21;100.00
8286;BME280;4181;43.416;24.598;2023-02-28T11:28:29;100556.66;;;7.29;100.00
8286;BME280;4181;43.416;24.598;2023-02-28T11:35:52;100571.25;;;7.04;100.00
8286;BME280;4181;43.416;24.598;2023-02-28T11:38:20;100578.75;;;7.02;100.00
8286;BME280;4181;43.416;24.598;2023-02-28T11:48:40;100538.78;;;7.46;100.00
8286;BME280;4181;43.416;24.598;2023-02-28T11:53:56;100566.75;;;7.22;100.00
8286;BME280;4181;43.416;24.598;2023-02-28T11:56:47;100549.25;;;7.43;100.00
8286;BME280;4181;43.416;24.598;2023-02-28T12:07:47;100579.38;;;7.66;100.00
8286;BME280;4181;43.416;24.598;2023-02-28T12:10:24;100570.31;;;7.47;100.00
8286;BME280;4181;43.416;24.598;2023-02-28T12:13:33;100561.16;;;7.42;100.00
8286;BME280;4181;43.416;24.598;2023-02-28T12:19:20;100558.66;;;7.65;100.00
8286;BME280;4181;43.416;24.598;2023-02-28T12:21:59;100574.63;;;7.55;100.00
8286;BME280;4181;43.416;24.598;2023-02-28T12:27:17;100575.06;;;7.52;100.00
8286;BME280;4181;43.416;24.598;2023-02-28T12:29:55;100574.63;;;7.55;100.00
8286;BME280;4181;43.416;24.598;2023-02-28T12:32:35;100573.50;;;7.38;100.00
8286;BME280;4181;43.416;24.598;2023-02-28T12:40:11;100555.56;;;7.61;100.00
8286;BME280;4181;43.416;24.598;2023-02-28T12:42:52;100557.69;;;8.02;100.00
8286;BME280;4181;43.416;24.598;2023-02-28T12:45:21;100560.13;;;8.10;100.00
8286;BME280;4181;43.416;24.598;2023-02-28T12:48:01;100581.09;;;8.03;100.00
8286;BME280;4181;43.416;24.598;2023-02-28T12:50:29;100565.78;;;8.09;100.00
8286;BME280;4181;43.416;24.598;2023-02-28T12:55:33;100612.34;;;7.94;100.00
8286;BME280;4181;43.416;24.598;2023-02-28T13:00:49;100605.75;;;8.26;100.00
8286;BME280;4181;43.416;24.598;2023-02-28T13:09:14;100623.28;;;8.30;100.00
8286;BME280;4181;43.416;24.598;2023-02-28T13:11:49;100638.38;;;8.26;100.00
8286;BME280;4181;43.416;24.598;2023-02-28T13:14:28;100633.44;;;8.17;100.00
8286;BME280;4181;43.416;24.598;2023-02-28T13:17:02;100656.69;;;8.37;100.00
8286;BME280;4181;43.416;24.598;2023-02-28T13:19:45;100652.44;;;8.41;100.00
8286;BME280;4181;43.416;24.598;2023-02-28T13:24:53;100656.69;;;7.88;100.00
8286;BME280;4181;43.416;24.598;2023-02-28T13:27:32;100677.66;;;7.74;100.00
8286;BME280;4181;43.416;24.598;2023-02-28T13:30:01;100673.25;;;8.05;100.00
8286;BME280;4181;43.416;24.598;2023-02-28T13:32:46;100675.00;;;7.99;100.00
8286;BME280;4181;43.416;24.598;2023-02-28T13:35:13;100649.75;;;7.92;100.00
8286;BME280;4181;43.416;24.598;2023-02-28T13:37:43;100646.09;;;7.80;100.00
8286;BME280;4181;43.416;24.598;2023-02-28T13:47:39;100677.97;;;7.91;100.00
8286;BME280;4181;43.416;24.598;2023-02-28T13:55:50;100646.09;;;7.80;100.00
8286;BME280;4181;43.416;24.598;2023-02-28T14:04:02;100626.84;;;8.06;100.00
8286;BME280;4181;43.416;24.598;2023-02-28T14:06:28;100598.59;;;7.89;100.00
8286;BME280;4181;43.416;24.598;2023-02-28T14:09:45;100630.38;;;8.31;100.00
8286;BME280;4181;43.416;24.598;2023-02-28T14:11:52;100629.56;;;8.31;100.00
8286;BME280;4181;43.416;24.598;2023-02-28T14:17:05;100647.25;;;8.15;100.00
8286;BME280;4181;43.416;24.598;2023-02-28T14:19:32;100659.38;;;7.88;100.00
8286;BME280;4181;43.416;24.598;2023-02-28T14:27:40;100627.63;;;7.64;100.00
8286;BME280;4181;43.416;24.598;2023-02-28T14:30:36;100618.34;;;7.71;100.00
8286;BME280;4181;43.416;24.598;2023-02-28T14:38:59;100608.19;;;7.36;100.00
8286;BME280;4181;43.416;24.598;2023-02-28T14:41:37;100611.50;;;7.38;100.00
8286;BME280;4181;43.416;24.598;2023-02-28T14:46:44;100587.34;;;7.30;100.00
8286;BME280;4181;43.416;24.598;2023-02-28T14:49:30;100570.72;;;7.20;100.00
8286;BME280;4181;43.416;24.598;2023-02-28T14:52:21;100587.97;;;7.01;100.00
8286;BME280;4181;43.416;24.598;2023-02-28T14:54:58;100557.91;;;7.02;100.00
8286;BME280;4181;43.416;24.598;2023-02-28T14:57:39;100557.00;;;7.08;100.00
8286;BME280;4181;43.416;24.598;2023-02-28T15:02:40;100541.31;;;7.17;100.00
8286;BME280;4181;43.416;24.598;2023-02-28T15:07:42;100527.47;;;7.25;100.00
8286;BME280;4181;43.416;24.598;2023-02-28T15:10:09;100532.63;;;7.33;100.00
8286;BME280;4181;43.416;24.598;2023-02-28T15:12:36;100531.22;;;6.93;100.00
8286;BME280;4181;43.416;24.598;2023-02-28T15:15:03;100529.69;;;7.03;100.00
8286;BME280;4181;43.416;24.598;2023-02-28T15:17:29;100526.94;;;7.10;100.00
8286;BME280;4181;43.416;24.598;2023-02-28T15:19:54;100498.38;;;6.76;100.00
8286;BME280;4181;43.416;24.598;2023-02-28T15:22:28;100517.78;;;7.11;100.00
8286;BME280;4181;43.416;24.598;2023-02-28T15:24:56;100477.03;;;6.86;100.00
8286;BME280;4181;43.416;24.598;2023-02-28T15:27:27;100501.28;;;7.37;100.00
8286;BME280;4181;43.416;24.598;2023-02-28T15:30:03;100510.50;;;7.36;100.00
8286;BME280;4181;43.416;24.598;2023-02-28T15:34:58;100509.00;;;7.58;100.00
8286;BME280;4181;43.416;24.598;2023-02-28T15:39:58;100535.50;;;7.38;100.00
8286;BME280;4181;43.416;24.598;2023-02-28T15:42:29;100523.38;;;7.16;100.00